Time;durP1;ratioP1;P1;durP2;ratioP2;P2;SDS_P1;SDS_P2;PMS_P1;PMS_P2;Temp;Humidity;BMP_temperature;BMP_pressure;BME280_temperature;BME280_humidity;BME280_pressure;Samples;Min_cycle;Max_cycle;Signal;HPM_P1;HPM_P2
2022/08/03 00:01:40;;;;;;;;;;;23.40;85.40;;;;;;5116227;28;20321;-65
2022/08/03 00:04:07;;;;;;;4.75;2.10;;;23.40;85.60;;;;;;5115524;28;20340;-64
2022/08/03 00:06:33;;;;;;;3.72;2.35;;;23.40;85.80;;;;;;5115809;28;20376;-64
2022/08/03 00:08:59;;;;;;;4.35;2.10;;;23.40;86.00;;;;;;5115317;28;20055;-64
2022/08/03 00:11:25;;;;;;;5.18;2.15;;;23.40;86.10;;;;;;5115192;28;20055;-64
2022/08/03 00:13:51;;;;;;;3.72;2.30;;;23.40;86.10;;;;;;5115066;28;20024;-64
2022/08/03 00:16:16;;;;;;;;;;;23.40;86.10;;;;;;5115720;28;20495;-65
2022/08/03 00:18:42;;;;;;;3.45;2.38;;;23.40;86.30;;;;;;5113792;28;19904;-66
2022/08/03 00:21:08;;;;;;;;;;;23.40;86.50;;;;;;5115802;28;20027;-66
2022/08/03 00:23:34;;;;;;;8.48;2.47;;;23.40;86.80;;;;;;5115557;28;19911;-66
2022/08/03 00:25:59;;;;;;;;;;;23.40;86.80;;;;;;5115111;28;20028;-66
2022/08/03 00:28:25;;;;;;;4.75;2.30;;;23.40;86.70;;;;;;5114644;28;19908;-66
2022/08/03 00:30:51;;;;;;;;;;;23.40;87.00;;;;;;5116464;28;20024;-67
2022/08/03 00:33:16;;;;;;;3.20;2.10;;;23.40;87.10;;;;;;5114513;28;19926;-65
2022/08/03 00:35:42;;;;;;;;;;;23.40;87.10;;;;;;5115144;28;20020;-66
2022/08/03 00:38:07;;;;;;;3.20;2.17;;;23.40;87.30;;;;;;5114875;28;19910;-66
2022/08/03 00:40:33;;;;;;;;;;;23.30;87.50;;;;;;5115355;28;20036;-66
2022/08/03 00:43:02;;;;;;;2.17;1.88;;;23.40;87.70;;;;;;5114840;28;19947;-66
2022/08/03 00:45:33;;;;;;;2.97;2.00;;;23.30;87.70;;;;;;5114700;28;20035;-66
2022/08/03 00:47:59;;;;;;;4.07;2.20;;;23.30;87.90;;;;;;5118512;22;20388;-63
2022/08/03 00:50:25;;;;;;;;;;;23.30;88.10;;;;;;5095195;28;20036;-64
2022/08/03 00:52:52;;;;;;;4.40;2.30;;;23.20;88.30;;;;;;5095131;28;19915;-62
2022/08/03 00:55:18;;;;;;;3.88;2.10;;;23.20;88.50;;;;;;5094666;28;20113;-63
2022/08/03 00:57:44;;;;;;;2.30;2.10;;;23.10;88.60;;;;;;5093030;28;20055;-63
2022/08/03 01:00:10;;;;;;;;;;;23.10;88.70;;;;;;5094651;28;20036;-62
2022/08/03 01:02:38;;;;;;;2.67;1.85;;;23.00;88.90;;;;;;5094407;28;19904;-64
2022/08/03 01:05:03;;;;;;;4.10;1.88;;;23.00;89.10;;;;;;5094342;28;20069;-63
2022/08/03 01:07:45;;;;;;;4.18;2.20;;;23.00;89.30;;;;;;5094077;28;20427;-63
2022/08/03 01:10:30;;;;;;;2.63;2.10;;;22.90;89.40;;;;;;5094636;28;20427;-63
2022/08/03 01:13:24;;;;;;;2.83;2.20;;;22.90;89.70;;;;;;5094027;28;20028;-62
2022/08/03 01:16:08;;;;;;;2.20;1.75;;;22.80;90.10;;;;;;5093955;28;20085;-63
2022/08/03 01:19:16;;;;;;;4.20;2.13;;;22.80;90.10;;;;;;5094167;28;20016;-62
2022/08/03 01:21:51;;;;;;;;;;;22.80;90.30;;;;;;5065676;28;20035;-63
2022/08/03 01:24:36;;;;;;;2.60;2.03;;;22.80;90.40;;;;;;5094389;28;19943;-62
2022/08/03 01:27:21;;;;;;;2.28;1.95;;;22.70;90.50;;;;;;5094063;28;20020;-63
2022/08/03 01:30:02;;;;;;;2.80;2.15;;;22.70;90.60;;;;;;5093042;28;20100;-62
2022/08/03 01:32:41;;;;;;;4.50;2.38;;;22.60;90.70;;;;;;5093602;28;20045;-62
2022/08/03 01:35:13;;;;;;;2.95;1.95;;;22.60;90.80;;;;;;5093699;28;20077;-63
2022/08/03 01:37:48;;;;;;;2.67;1.80;;;22.60;90.90;;;;;;5093789;28;20025;-62
2022/08/03 01:40:14;;;;;;;3.80;2.00;;;22.50;91.00;;;;;;5093988;28;20460;-63
2022/08/03 01:42:41;;;;;;;4.22;2.13;;;22.50;91.20;;;;;;5093592;28;20262;-63
2022/08/03 01:45:10;;;;;;;2.30;2.08;;;22.50;91.20;;;;;;5092277;28;20119;-63
2022/08/03 01:47:38;;;;;;;4.38;2.25;;;22.50;91.30;;;;;;5093259;28;20515;-62
2022/08/03 01:50:05;;;;;;;3.25;2.17;;;22.40;91.30;;;;;;5093499;28;20047;-64
2022/08/03 01:52:32;;;;;;;4.93;2.13;;;22.40;91.40;;;;;;5092274;28;20066;-63
2022/08/03 01:55:00;;;;;;;3.55;2.08;;;22.30;91.40;;;;;;5093546;28;20020;-62
2022/08/03 01:57:27;;;;;;;4.32;2.08;;;22.30;91.60;;;;;;5094162;28;20157;-61
2022/08/03 01:59:56;;;;;;;4.68;1.92;;;22.10;91.80;;;;;;5092178;28;20028;-63
2022/08/03 02:02:22;;;;;;;4.78;2.40;;;22.10;92.00;;;;;;5093470;28;20174;-61
2022/08/03 02:04:49;;;;;;;3.65;2.45;;;22.00;92.20;;;;;;5092206;28;20541;-59
2022/08/03 02:07:15;;;;;;;4.18;2.30;;;22.00;92.30;;;;;;5096102;28;20111;-63
2022/08/03 02:09:45;;;;;;;3.70;1.92;;;22.00;92.80;;;;;;5098007;28;20024;-62
2022/08/03 02:12:12;;;;;;;2.55;2.10;;;22.00;92.60;;;;;;5098209;28;20024;-63
2022/08/03 02:14:40;;;;;;;2.65;2.05;;;21.90;92.60;;;;;;5098584;28;20114;-62
2022/08/03 02:17:11;;;;;;;4.13;2.20;;;22.00;92.70;;;;;;5097638;28;20027;-63
2022/08/03 02:19:37;;;;;;;4.00;2.42;;;21.90;93.00;;;;;;5098078;28;20134;-64
2022/08/03 02:22:07;;;;;;;3.72;2.40;;;21.90;93.00;;;;;;5097846;28;20384;-62
2022/08/03 02:24:32;;;;;;;2.20;1.95;;;21.90;93.10;;;;;;5096579;28;20032;-63
2022/08/03 02:27:00;;;;;;;3.25;2.35;;;21.80;93.10;;;;;;5098304;28;20031;-64
2022/08/03 02:29:31;;;;;;;4.38;2.20;;;21.80;93.20;;;;;;5097991;28;20024;-61
2022/08/03 02:32:00;;;;;;;3.08;2.17;;;21.70;93.50;;;;;;5097947;28;20020;-63
2022/08/03 02:34:28;;;;;;;2.53;2.20;;;21.50;94.00;;;;;;5097682;28;20016;-63
2022/08/03 02:36:58;;;;;;;2.97;2.40;;;21.40;94.50;;;;;;5097168;28;20027;-63
2022/08/03 02:39:27;;;;;;;2.78;2.20;;;21.30;95.00;;;;;;5095849;28;20373;-63
2022/08/03 02:42:01;;;;;;;3.55;2.33;;;21.20;95.30;;;;;;5095644;28;20552;-62
2022/08/03 02:44:27;;;;;;;4.63;2.15;;;21.30;95.60;;;;;;5095974;28;20086;-63
2022/08/03 02:46:56;;;;;;;4.18;2.50;;;21.20;95.80;;;;;;5097062;28;20057;-63
2022/08/03 02:49:24;;;;;;;4.05;2.80;;;21.10;96.10;;;;;;5096910;28;20048;-63
2022/08/03 02:51:52;;;;;;;3.33;2.45;;;21.10;96.40;;;;;;5097209;28;20020;-63
2022/08/03 02:54:18;;;;;;;3.70;2.50;;;21.00;96.70;;;;;;5097029;28;20020;-63
2022/08/03 02:56:48;;;;;;;4.32;2.65;;;20.90;97.10;;;;;;5097065;28;20028;-63
2022/08/03 02:59:16;;;;;;;4.07;2.67;;;20.80;97.50;;;;;;5096776;28;20023;-63
2022/08/03 03:01:44;;;;;;;3.13;2.05;;;20.70;97.80;;;;;;5096811;28;20039;-63
2022/08/03 03:04:10;;;;;;;3.70;2.50;;;20.60;98.10;;;;;;5096970;28;20178;-64
2022/08/03 03:06:36;;;;;;;;;;;20.60;98.40;;;;;;5095643;28;20418;-64
2022/08/03 03:09:01;;;;;;;4.03;2.45;;;20.50;98.80;;;;;;5095049;28;19915;-61
2022/08/03 03:11:28;;;;;;;4.47;2.63;;;20.50;99.10;;;;;;5096658;28;20036;-63
2022/08/03 03:13:56;;;;;;;7.10;2.63;;;20.40;99.50;;;;;;5096502;28;20114;-63
2022/08/03 03:16:22;;;;;;;3.55;2.53;;;20.40;99.70;;;;;;5096435;28;20020;-63
2022/08/03 03:18:48;;;;;;;;;;;20.30;99.90;;;;;;5096648;28;20016;-63
2022/08/03 03:21:17;;;;;;;3.80;2.95;;;20.30;99.90;;;;;;5096263;28;19904;-63
2022/08/03 03:23:44;;;;;;;5.38;2.60;;;20.30;99.90;;;;;;5096033;28;20017;-63
2022/08/03 03:26:13;;;;;;;3.05;2.20;;;20.20;99.90;;;;;;5095820;28;20016;-63
2022/08/03 03:28:39;;;;;;;3.90;2.53;;;20.20;99.90;;;;;;5095999;28;20020;-64
2022/08/03 03:31:06;;;;;;;5.13;2.55;;;20.20;99.90;;;;;;5096286;28;20373;-63
2022/08/03 03:33:33;;;;;;;3.75;2.67;;;20.20;99.90;;;;;;5096273;28;20024;-63
2022/08/03 03:36:00;;;;;;;4.28;2.58;;;20.10;99.90;;;;;;5096417;28;20072;-65
2022/08/03 03:38:26;;;;;;;7.25;2.85;;;20.10;99.90;;;;;;5096052;28;20094;-63
2022/08/03 03:40:51;;;;;;;5.72;2.53;;;20.00;99.90;;;;;;5096390;28;20036;-63
2022/08/03 03:43:18;;;;;;;5.53;2.50;;;20.00;99.90;;;;;;5096995;28;20507;-60
2022/08/03 03:45:44;;;;;;;;;;;20.10;99.90;;;;;;5096478;28;20052;-61
2022/08/03 03:48:10;;;;;;;3.17;2.60;;;20.10;99.90;;;;;;5095501;28;19920;-63
2022/08/03 03:50:39;;;;;;;2.58;2.38;;;20.10;99.90;;;;;;5096089;28;20587;-63
2022/08/03 03:53:08;;;;;;;4.88;2.42;;;20.20;99.90;;;;;;5095656;28;20024;-63
2022/08/03 03:55:34;;;;;;;4.15;2.35;;;20.20;99.90;;;;;;5094229;28;20529;-63
2022/08/03 03:58:00;;;;;;;5.80;2.42;;;20.20;99.90;;;;;;5095689;28;20028;-65
2022/08/03 04:00:25;;;;;;;3.65;2.45;;;20.10;99.90;;;;;;5095541;28;20024;-64
2022/08/03 04:02:51;;;;;;;4.60;2.70;;;20.20;99.90;;;;;;5095553;28;20036;-63
2022/08/03 04:11:19;;;;;;;5.35;2.60;;;20.30;99.90;;;;;;5095659;28;20027;-64
2022/08/03 04:13:52;;;;;;;5.65;2.70;;;20.10;99.90;;;;;;5093970;28;20023;-64
2022/08/03 04:16:21;;;;;;;3.30;2.53;;;20.10;99.90;;;;;;5093855;28;20028;-63
2022/08/03 04:18:52;;;;;;;4.57;2.50;;;20.00;99.90;;;;;;5095388;28;20148;-62
2022/08/03 04:21:19;;;;;;;5.43;2.63;;;20.00;99.90;;;;;;5095786;28;20425;-63
2022/08/03 04:23:50;;;;;;;4.68;2.75;;;20.00;99.90;;;;;;5095495;28;20487;-63
2022/08/03 04:26:19;;;;;;;3.17;2.42;;;20.00;99.90;;;;;;5095257;28;20031;-63
2022/08/03 04:28:46;;;;;;;4.95;2.40;;;20.10;99.90;;;;;;5094589;28;20024;-63
2022/08/03 04:31:14;;;;;;;3.95;2.55;;;20.10;99.90;;;;;;5094808;28;20016;-64
2022/08/03 04:33:42;;;;;;;3.78;2.78;;;20.10;99.90;;;;;;5095037;28;20085;-63
2022/08/03 04:36:10;;;;;;;2.95;2.47;;;20.00;99.90;;;;;;5094932;28;20536;-63
2022/08/03 04:38:39;;;;;;;3.15;2.70;;;20.10;99.90;;;;;;5094995;28;20032;-63
2022/08/03 04:41:06;;;;;;;6.53;2.50;;;20.00;99.90;;;;;;5094525;28;20020;-61
2022/08/03 04:43:33;;;;;;;6.65;2.75;;;20.00;99.90;;;;;;5095307;28;20106;-59
2022/08/03 04:46:00;;;;;;;3.17;2.72;;;20.00;99.90;;;;;;5095094;28;20024;-58
2022/08/03 04:48:26;;;;;;;4.97;2.63;;;20.00;99.90;;;;;;5095542;28;20028;-56
2022/08/03 04:50:52;;;;;;;3.45;2.72;;;20.00;99.90;;;;;;5094843;28;20097;-59
2022/08/03 04:53:18;;;;;;;4.25;2.47;;;20.00;99.90;;;;;;5095494;28;20480;-54
2022/08/03 04:55:43;;;;;;;4.85;2.63;;;20.00;99.90;;;;;;5095091;28;20062;-55
2022/08/03 04:58:09;;;;;;;4.20;2.83;;;20.10;99.90;;;;;;5094853;28;20028;-59
2022/08/03 05:00:35;;;;;;;2.88;2.45;;;20.10;99.90;;;;;;5093343;28;20031;-57
2022/08/03 05:03:00;;;;;;;4.80;2.45;;;20.20;99.90;;;;;;5094466;28;20028;-55
2022/08/03 05:05:26;;;;;;;5.05;2.72;;;20.20;99.90;;;;;;5094270;28;20098;-59
2022/08/03 05:07:51;;;;;;;5.28;2.55;;;20.20;99.90;;;;;;5094448;28;20468;-59
2022/08/03 05:10:17;;;;;;;4.75;2.60;;;20.30;99.90;;;;;;5094346;28;20024;-60
2022/08/03 05:12:44;;;;;;;4.60;2.67;;;20.40;99.90;;;;;;5094680;28;20035;-57
2022/08/03 05:15:11;;;;;;;3.05;2.72;;;20.40;99.90;;;;;;5092748;28;20480;-57
2022/08/03 05:17:36;;;;;;;3.13;2.28;;;20.50;99.90;;;;;;5092751;28;20070;-56
2022/08/03 05:20:03;;;;;;;2.97;2.40;;;20.60;99.90;;;;;;5093008;28;20477;-58
2022/08/03 05:22:29;;;;;;;4.43;2.33;;;20.70;99.90;;;;;;5092914;28;20047;-58
2022/08/03 05:24:54;;;;;;;3.15;2.65;;;20.70;99.90;;;;;;5093985;28;20071;-61
2022/08/03 05:27:20;;;;;;;4.03;2.78;;;20.70;99.90;;;;;;5094809;28;20048;-59
2022/08/03 05:29:47;;;;;;;3.00;2.30;;;20.90;99.90;;;;;;5093992;28;20430;-58
2022/08/03 05:32:13;;;;;;;2.90;2.60;;;20.90;99.90;;;;;;5094045;28;20024;-58
2022/08/03 05:34:38;;;;;;;5.68;2.42;;;21.00;99.90;;;;;;5092563;28;20162;-59
2022/08/03 05:37:04;;;;;;;7.18;4.15;;;21.00;99.90;;;;;;5093994;28;20039;-58
2022/08/03 05:39:30;;;;;;;6.57;2.60;;;21.10;99.90;;;;;;5094426;28;20043;-58
2022/08/03 05:41:55;;;;;;;3.45;2.55;;;21.20;99.90;;;;;;5093156;28;20449;-57
2022/08/03 05:44:21;;;;;;;4.60;2.60;;;21.30;99.90;;;;;;5094403;28;20042;-59
2022/08/03 05:46:46;;;;;;;2.42;1.92;;;21.50;99.60;;;;;;5094185;28;20511;-57
2022/08/03 05:49:12;;;;;;;2.90;2.05;;;21.50;99.30;;;;;;5093833;28;20032;-57
2022/08/03 05:51:37;;;;;;;6.80;2.55;;;21.50;99.00;;;;;;5093018;28;20031;-56
2022/08/03 05:54:03;;;;;;;4.03;2.17;;;21.70;99.10;;;;;;5092781;28;20024;-59
2022/08/03 05:56:28;;;;;;;4.38;1.98;;;21.80;98.50;;;;;;5094055;28;20024;-59
2022/08/03 05:58:54;;;;;;;3.80;2.10;;;21.90;98.20;;;;;;5093861;28;20393;-58
2022/08/03 06:01:21;;;;;;;4.90;2.20;;;22.00;97.80;;;;;;5094057;28;20056;-62
2022/08/03 06:03:47;;;;;;;4.35;2.17;;;22.10;97.50;;;;;;5094140;28;20020;-60
2022/08/03 06:06:13;;;;;;;4.55;2.65;;;22.20;97.20;;;;;;5094061;28;20388;-62
2022/08/03 06:08:39;;;;;;;;;;;22.30;97.00;;;;;;5093657;28;20024;-61
2022/08/03 06:11:05;;;;;;;6.13;2.10;;;22.40;97.20;;;;;;5093754;28;19912;-61
2022/08/03 06:13:31;;;;;;;4.20;1.90;;;22.50;96.70;;;;;;5094338;28;20523;-60
2022/08/03 06:15:56;;;;;;;4.28;1.95;;;22.60;96.90;;;;;;5094336;28;20024;-61
2022/08/03 06:18:23;;;;;;;4.35;2.13;;;22.70;96.60;;;;;;5093543;28;20020;-62
2022/08/03 06:20:49;;;;;;;5.35;2.53;;;22.80;96.40;;;;;;5093579;28;20035;-59
2022/08/03 06:23:15;;;;;;;;;;;22.80;95.80;;;;;;5094152;28;20533;-59
2022/08/03 06:25:41;;;;;;;4.80;2.47;;;22.90;95.70;;;;;;5094014;28;19912;-62
2022/08/03 06:28:07;;;;;;;;;;;23.00;95.40;;;;;;5093895;28;20020;-62
2022/08/03 06:30:32;;;;;;;4.60;1.92;;;23.00;95.00;;;;;;5094200;28;19904;-62
2022/08/03 06:32:58;;;;;;;6.03;2.13;;;23.00;95.00;;;;;;5092390;28;20020;-62
2022/08/03 06:35:24;;;;;;;;;;;23.10;94.90;;;;;;5094350;28;20024;-62
2022/08/03 06:37:50;;;;;;;2.95;2.00;;;23.10;94.70;;;;;;5092450;28;19912;-62
2022/08/03 06:40:18;;;;;;;4.63;2.33;;;23.10;94.50;;;;;;5093784;28;20484;-63
2022/08/03 06:42:43;;;;;;;2.75;1.80;;;23.20;94.40;;;;;;5093768;28;20020;-63
2022/08/03 06:45:10;;;;;;;3.67;2.10;;;23.30;94.10;;;;;;5092922;28;20028;-63
2022/08/03 06:47:39;;;;;;;6.78;2.10;;;23.30;93.80;;;;;;5113272;22;20057;-69
2022/08/03 06:50:05;;;;;;;4.38;2.28;;;23.50;93.80;;;;;;5074515;28;20032;-68
2022/08/03 06:52:31;;;;;;;5.20;2.17;;;23.60;93.70;;;;;;5075779;28;20021;-68
2022/08/03 06:54:57;;;;;;;9.45;1.90;;;23.60;93.60;;;;;;5096477;28;20471;-68
2022/08/03 06:57:23;;;;;;;4.88;1.88;;;23.70;93.40;;;;;;5096353;28;20097;-67
2022/08/03 06:59:48;;;;;;;;;;;23.70;93.30;;;;;;5096681;28;20020;-69
2022/08/03 07:02:14;;;;;;;3.33;2.25;;;23.80;93.20;;;;;;5096282;28;19911;-68
2022/08/03 07:04:39;;;;;;;;;;;23.80;92.90;;;;;;5097227;28;20378;-69
2022/08/03 07:07:05;;;;;;;4.57;2.00;;;23.90;92.70;;;;;;5096753;28;20014;-68
2022/08/03 07:09:30;;;;;;;;;;;24.10;92.30;;;;;;5096433;28;20021;-68
2022/08/03 07:11:57;;;;;;;2.42;1.70;;;24.10;92.10;;;;;;5077686;28;19949;-68
2022/08/03 07:14:23;;;;;;;3.60;2.00;;;24.20;92.00;;;;;;5077655;28;20024;-68
2022/08/03 07:16:48;;;;;;;;;;;24.30;92.00;;;;;;5096289;28;20016;-69
2022/08/03 07:19:14;;;;;;;7.18;2.10;;;24.40;91.70;;;;;;5095661;28;19904;-69
2022/08/03 07:21:40;;;;;;;;;;;24.40;91.60;;;;;;5096563;28;20028;-68
2022/08/03 07:24:05;;;;;;;5.20;2.17;;;24.50;91.30;;;;;;5077650;28;19904;-69
2022/08/03 07:26:31;;;;;;;;;;;24.60;91.20;;;;;;5096257;28;20492;-69
2022/08/03 07:28:56;;;;;;;5.75;2.00;;;24.70;91.10;;;;;;5077360;28;19904;-69
2022/08/03 07:31:22;;;;;;;;;;;24.70;90.90;;;;;;5095986;28;20028;-69
2022/08/03 07:33:47;;;;;;;5.43;1.98;;;24.80;90.80;;;;;;5095549;28;20003;-69
2022/08/03 07:36:13;;;;;;;;;;;24.80;90.70;;;;;;5095931;28;20031;-68
2022/08/03 07:38:38;;;;;;;6.40;2.08;;;24.90;90.60;;;;;;5095340;28;19920;-68
2022/08/03 07:41:04;;;;;;;;;;;25.00;90.40;;;;;;5095954;28;20112;-68
2022/08/03 07:43:29;;;;;;;10.38;2.45;;;25.10;90.20;;;;;;5095615;28;19904;-68
2022/08/03 07:45:55;;;;;;;;;;;25.20;90.00;;;;;;5095910;28;20024;-69
2022/08/03 07:48:20;;;;;;;3.47;1.65;;;25.20;89.10;;;;;;5095109;28;19955;-65
2022/08/03 07:50:46;;;;;;;;;;;25.40;89.00;;;;;;5095831;28;20069;-65
2022/08/03 07:53:11;;;;;;;5.20;2.10;;;25.50;88.70;;;;;;5077053;28;19903;-63
2022/08/03 07:55:37;;;;;;;;;;;25.70;88.00;;;;;;5095708;28;20020;-66
2022/08/03 07:58:03;;;;;;;3.38;1.92;;;25.70;87.70;;;;;;5095211;28;20314;-63
2022/08/03 08:00:29;;;;;;;4.40;2.33;;;25.80;87.60;;;;;;5095698;28;20425;-64
2022/08/03 08:02:54;;;;;;;;;;;26.00;86.90;;;;;;5095805;28;20032;-64
2022/08/03 08:05:20;;;;;;;3.42;2.20;;;26.10;87.00;;;;;;5094043;28;19908;-63
2022/08/03 08:07:46;;;;;;;2.75;1.80;;;26.20;86.80;;;;;;5094484;28;20024;-64
2022/08/03 08:10:11;;;;;;;2.72;1.70;;;26.40;86.50;;;;;;5076425;28;20020;-64
2022/08/03 08:12:38;;;;;;;2.75;1.70;;;26.70;84.80;;;;;;5095051;28;20094;-65
2022/08/03 08:15:05;;;;;;;7.88;2.40;;;26.90;84.20;;;;;;5094518;28;20562;-63
2022/08/03 08:17:30;;;;;;;5.43;1.73;;;27.20;83.60;;;;;;5094540;28;20064;-64
2022/08/03 08:19:56;;;;;;;3.30;1.90;;;27.40;83.50;;;;;;5094806;28;20024;-64
2022/08/03 08:22:22;;;;;;;4.45;1.90;;;27.60;83.00;;;;;;5076466;28;20393;-62
2022/08/03 08:24:48;;;;;;;5.63;1.90;;;27.70;81.60;;;;;;5094032;28;20081;-63
2022/08/03 08:27:14;;;;;;;4.32;1.90;;;28.00;81.10;;;;;;5094153;28;20028;-63
2022/08/03 08:29:40;;;;;;;4.38;2.15;;;29.00;79.50;;;;;;5094343;28;20070;-63
2022/08/03 08:32:05;;;;;;;3.42;1.83;;;31.20;75.90;;;;;;5094398;28;20036;-64
2022/08/03 08:34:31;;;;;;;2.83;1.90;;;33.60;71.10;;;;;;5093960;28;20362;-65
2022/08/03 08:36:57;;;;;;;3.95;1.63;;;35.80;65.70;;;;;;5094207;28;20025;-65
2022/08/03 08:39:23;;;;;;;4.13;2.00;;;37.80;62.20;;;;;;5076117;28;20026;-63
2022/08/03 08:41:51;;;;;;;4.55;1.90;;;39.70;58.80;;;;;;5094104;28;20028;-63
2022/08/03 08:44:17;;;;;;;4.15;2.10;;;40.60;56.20;;;;;;5094077;28;20030;-62
2022/08/03 08:46:43;;;;;;;5.75;2.05;;;41.60;55.10;;;;;;5094046;28;20032;-63
2022/08/03 08:49:09;;;;;;;5.18;1.83;;;42.20;53.80;;;;;;5093965;28;20058;-64
2022/08/03 08:51:39;;;;;;;2.60;1.73;;;42.00;52.30;;;;;;5094062;28;20069;-64
2022/08/03 08:54:06;;;;;;;5.40;2.10;;;41.60;53.10;;;;;;5094084;28;20096;-64
2022/08/03 08:56:33;;;;;;;4.53;2.08;;;43.10;52.40;;;;;;5093965;28;20051;-64
2022/08/03 08:59:00;;;;;;;6.05;1.77;;;43.90;51.30;;;;;;5093928;28;20024;-64
2022/08/03 09:01:26;;;;;;;2.80;2.00;;;43.90;50.40;;;;;;5094205;28;20099;-64
2022/08/03 09:03:53;;;;;;;2.00;1.75;;;44.30;49.90;;;;;;5093800;28;20023;-64
2022/08/03 09:06:19;;;;;;;2.72;1.83;;;44.80;49.70;;;;;;5093714;28;20020;-65
2022/08/03 09:08:45;;;;;;;4.70;2.30;;;45.50;49.00;;;;;;5093935;28;20039;-64
2022/08/03 09:11:11;;;;;;;2.30;2.00;;;46.40;48.60;;;;;;5093818;28;20388;-64
2022/08/03 09:13:37;;;;;;;4.30;2.10;;;46.60;47.40;;;;;;5093791;28;20353;-66
2022/08/03 09:16:17;;;;;;;4.93;2.45;;;46.10;47.60;;;;;;5093354;28;20020;-64
2022/08/03 09:18:51;;;;;;;3.78;2.25;;;46.20;47.30;;;;;;5093498;28;20081;-63
2022/08/03 09:21:35;;;;;;;6.85;2.33;;;45.90;47.40;;;;;;5075343;28;20168;-63
2022/08/03 09:24:03;;;;;;;4.90;2.63;;;45.50;47.70;;;;;;5093775;28;20471;-63
2022/08/03 09:26:30;;;;;;;7.07;2.85;;;45.50;48.00;;;;;;5093916;28;20048;-64
2022/08/03 09:28:57;;;;;;;6.82;2.80;;;45.80;47.80;;;;;;5094533;28;20436;-64
2022/08/03 09:31:37;;;;;;;5.53;2.75;;;46.10;47.60;;;;;;5093613;28;20028;-64
2022/08/03 09:34:05;;;;;;;3.20;2.33;;;46.50;47.10;;;;;;5093745;28;20147;-65
2022/08/03 09:36:38;;;;;;;4.68;2.42;;;46.70;46.80;;;;;;5093160;28;20033;-64
2022/08/03 09:39:10;;;;;;;6.50;2.72;;;47.00;46.60;;;;;;5093155;28;20020;-64
2022/08/03 09:41:38;;;;;;;3.28;2.47;;;46.90;46.50;;;;;;5075052;28;20148;-63
2022/08/03 09:44:04;;;;;;;8.88;2.53;;;46.80;46.20;;;;;;5075134;28;20031;-63
2022/08/03 09:46:30;;;;;;;4.93;2.58;;;47.30;46.20;;;;;;5093005;28;20024;-63
2022/08/03 09:49:11;;;;;;;3.83;2.60;;;47.70;46.70;;;;;;5093282;28;20028;-63
2022/08/03 09:51:38;;;;;;;4.35;2.75;;;47.60;46.00;;;;;;5093466;28;20024;-64
2022/08/03 09:54:03;;;;;;;8.70;2.58;;;48.20;45.60;;;;;;5092877;28;20031;-63
2022/08/03 09:56:46;;;;;;;6.93;2.30;;;48.50;45.50;;;;;;5074904;28;20032;-64
2022/08/03 09:59:12;;;;;;;2.50;2.30;;;48.70;44.70;;;;;;5092872;28;20516;-64
2022/08/03 10:01:42;;;;;;;4.00;2.78;;;47.00;45.70;;;;;;5092947;28;20473;-64
2022/08/03 10:04:13;;;;;;;7.30;2.50;;;47.20;45.70;;;;;;5092932;28;20024;-64
2022/08/03 10:06:38;;;;;;;2.67;2.13;;;47.90;45.40;;;;;;5093045;28;20023;-64
2022/08/03 10:09:09;;;;;;;2.47;2.28;;;47.60;44.70;;;;;;5093341;28;20103;-64
2022/08/03 10:11:37;;;;;;;5.97;2.40;;;48.20;45.20;;;;;;5074991;28;20081;-64
2022/08/03 10:14:04;;;;;;;2.30;2.10;;;48.60;44.80;;;;;;5092775;28;20112;-64
2022/08/03 10:16:38;;;;;;;4.22;2.30;;;47.60;45.00;;;;;;5093015;28;20097;-64
2022/08/03 10:19:06;;;;;;;3.67;2.22;;;47.40;45.40;;;;;;5074795;28;20016;-66
2022/08/03 10:21:35;;;;;;;3.53;2.35;;;47.50;45.50;;;;;;5093128;28;20016;-64
2022/08/03 10:24:06;;;;;;;3.45;2.22;;;47.30;45.30;;;;;;5092725;28;20099;-63
2022/08/03 10:26:33;;;;;;;7.25;2.35;;;47.30;45.30;;;;;;5093160;28;20017;-63
2022/08/03 10:29:03;;;;;;;2.53;1.88;;;47.10;45.30;;;;;;5096798;28;20035;-63
2022/08/03 10:31:36;;;;;;;4.25;2.20;;;47.00;45.20;;;;;;5098048;28;20027;-63
2022/08/03 10:34:05;;;;;;;5.30;2.40;;;46.90;45.20;;;;;;5098279;28;20016;-63
2022/08/03 10:36:34;;;;;;;2.97;2.28;;;46.60;45.50;;;;;;5099045;28;20509;-64
2022/08/03 10:39:01;;;;;;;3.05;2.20;;;46.00;46.00;;;;;;5097461;28;20094;-64
2022/08/03 10:41:34;;;;;;;2.08;1.88;;;45.80;46.20;;;;;;5078789;28;20076;-64
2022/08/03 10:44:06;;;;;;;6.05;2.22;;;46.50;45.60;;;;;;5096496;28;20070;-64
2022/08/03 10:46:33;;;;;;;3.53;1.98;;;46.80;45.40;;;;;;5096389;28;20108;-64
2022/08/03 10:48:59;;;;;;;4.80;2.10;;;46.20;45.50;;;;;;5096101;28;20081;-64
2022/08/03 10:51:30;;;;;;;3.42;1.95;;;45.30;46.00;;;;;;5078033;28;20388;-64
2022/08/03 10:53:57;;;;;;;3.92;1.90;;;45.40;46.00;;;;;;5096555;28;20016;-64
2022/08/03 10:59:17;;;;;;;4.10;2.00;;;45.60;46.00;;;;;;5096265;28;20114;-64
2022/08/03 11:01:54;;;;;;;2.25;1.95;;;45.60;45.90;;;;;;5096079;28;20081;-64
2022/08/03 11:04:23;;;;;;;3.20;2.10;;;45.40;45.80;;;;;;5096219;28;20027;-64
2022/08/03 11:07:14;;;;;;;4.78;2.45;;;45.50;46.20;;;;;;5095683;28;20368;-64
2022/08/03 11:09:54;;;;;;;3.78;2.03;;;45.80;46.00;;;;;;5095835;28;20385;-64
2022/08/03 11:12:24;;;;;;;3.00;1.73;;;45.60;45.60;;;;;;5095854;28;20024;-64
2022/08/03 11:14:50;;;;;;;2.72;1.90;;;44.60;46.00;;;;;;5095794;28;20040;-64
2022/08/03 11:17:17;;;;;;;4.85;1.60;;;42.50;47.40;;;;;;5095527;28;20396;-64
2022/08/03 11:19:44;;;;;;;2.95;1.63;;;40.50;49.30;;;;;;5095769;28;20069;-63
2022/08/03 11:22:09;;;;;;;2.00;1.60;;;38.90;50.70;;;;;;5095849;28;20028;-64
2022/08/03 11:24:42;;;;;;;3.63;1.80;;;37.90;51.90;;;;;;5077663;28;20028;-64
2022/08/03 11:27:16;;;;;;;4.00;1.50;;;37.00;52.70;;;;;;5078265;28;20020;-64
2022/08/03 11:30:04;;;;;;;1.73;1.50;;;36.20;53.80;;;;;;5096390;28;20567;-63
2022/08/03 11:32:39;;;;;;;2.35;1.70;;;35.80;54.60;;;;;;5095686;28;20099;-62
2022/08/03 11:35:42;;;;;;;1.90;1.70;;;35.30;54.90;;;;;;5095373;28;20069;-63
2022/08/03 11:38:09;;;;;;;4.75;3.47;;;34.80;55.20;;;;;;5012892;28;20034;-64
2022/08/03 11:40:47;;;;;;;6.53;2.08;;;34.70;55.80;;;;;;5012145;28;20156;-63
2022/08/03 11:43:22;;;;;;;2.50;1.70;;;34.60;56.20;;;;;;5013137;28;20061;-63
2022/08/03 11:46:02;;;;;;;4.22;2.00;;;34.30;56.30;;;;;;5013424;28;20172;-63
2022/08/03 11:48:42;;;;;;;4.85;2.05;;;34.10;56.80;;;;;;5013303;28;20042;-63
2022/08/03 11:51:20;;;;;;;3.63;1.92;;;34.10;57.40;;;;;;5013311;28;20022;-64
2022/08/03 11:53:48;;;;;;;1.77;1.45;;;33.90;56.90;;;;;;5013229;28;20026;-62
2022/08/03 11:56:14;;;;;;;1.65;1.52;;;33.80;57.00;;;;;;5013368;28;20410;-63
2022/08/03 11:58:52;;;;;;;2.03;1.75;;;33.60;57.40;;;;;;5013135;28;20034;-63
2022/08/03 12:01:18;;;;;;;3.28;2.30;;;33.50;57.80;;;;;;5012991;28;20208;-63
2022/08/03 12:03:44;;;;;;;5.45;1.92;;;33.60;57.90;;;;;;5013143;28;20470;-63
2022/08/03 12:06:12;;;;;;;3.05;1.92;;;33.70;57.80;;;;;;5013127;28;20030;-63
2022/08/03 12:08:39;;;;;;;2.78;1.98;;;33.80;57.80;;;;;;5013581;28;20099;-63
2022/08/03 12:11:06;;;;;;;2.28;1.75;;;33.90;57.60;;;;;;5013726;28;20033;-64
2022/08/03 12:13:44;;;;;;;2.90;1.83;;;33.90;57.20;;;;;;5024856;28;20036;-64
2022/08/03 12:16:15;;;;;;;4.28;1.80;;;33.90;57.70;;;;;;5094890;28;20095;-63
2022/08/03 12:18:41;;;;;;;3.03;1.88;;;33.80;57.20;;;;;;5094936;28;20031;-63
2022/08/03 12:21:09;;;;;;;2.80;2.03;;;33.50;57.40;;;;;;5094458;28;20032;-63
2022/08/03 12:23:35;;;;;;;2.67;1.90;;;33.30;58.00;;;;;;5094798;28;20032;-63
2022/08/03 12:26:08;;;;;;;4.45;1.60;;;33.40;58.20;;;;;;5076315;28;20077;-63
2022/08/03 12:28:34;;;;;;;1.92;1.60;;;33.50;57.90;;;;;;5094448;28;20024;-63
2022/08/03 12:31:05;;;;;;;3.22;1.83;;;33.60;57.90;;;;;;5094432;28;20375;-63
2022/08/03 12:33:31;;;;;;;3.90;2.08;;;33.70;58.10;;;;;;5076112;28;20021;-63
2022/08/03 12:36:07;;;;;;;4.68;2.13;;;33.90;58.70;;;;;;5076165;28;20022;-63
2022/08/03 12:38:35;;;;;;;2.70;1.92;;;33.90;57.30;;;;;;5094871;28;20020;-64
2022/08/03 12:41:07;;;;;;;3.35;2.10;;;33.90;57.30;;;;;;5077929;28;20032;-64
2022/08/03 12:43:34;;;;;;;2.00;1.52;;;33.80;57.60;;;;;;5096114;28;20100;-64
2022/08/03 12:46:09;;;;;;;2.83;1.88;;;33.70;57.40;;;;;;5077800;28;20427;-63
2022/08/03 12:48:35;;;;;;;4.03;1.92;;;33.60;57.80;;;;;;5115910;22;20099;-64
2022/08/03 12:51:10;;;;;;;2.80;1.77;;;33.70;58.10;;;;;;5094798;28;20032;-64
2022/08/03 12:53:36;;;;;;;2.00;1.80;;;33.80;57.90;;;;;;5094147;28;20020;-64
2022/08/03 12:56:03;;;;;;;2.00;1.88;;;33.90;57.60;;;;;;5094221;28;20519;-65
2022/08/03 12:58:34;;;;;;;2.95;1.65;;;33.90;57.30;;;;;;5094472;28;20024;-65
2022/08/03 13:01:04;;;;;;;3.72;1.70;;;33.80;57.50;;;;;;5093610;28;20024;-64
2022/08/03 13:03:41;;;;;;;2.88;1.67;;;33.70;57.60;;;;;;5093511;28;20024;-69
2022/08/03 13:06:25;;;;;;;2.53;1.95;;;33.70;57.80;;;;;;5093898;28;20077;-65
2022/08/03 13:09:05;;;;;;;3.20;1.63;;;33.80;57.80;;;;;;5094575;28;20396;-67
2022/08/03 13:11:31;;;;;;;2.80;1.90;;;33.90;57.90;;;;;;5093895;28;20043;-67